sensor_id;sensor_type;location;lat;lon;timestamp;P1;durP1;ratioP1;P2;durP2;ratioP2
77726;SDS011;68312;53.502;10.030;2023-07-16T00:02:21;2.10;;;0.98;;
77726;SDS011;68312;53.502;10.030;2023-07-16T00:04:46;3.40;;;1.35;;
77726;SDS011;68312;53.502;10.030;2023-07-16T00:07:11;2.10;;;1.20;;
77726;SDS011;68312;53.502;10.030;2023-07-16T00:09:38;5.22;;;2.05;;
77726;SDS011;68312;53.502;10.030;2023-07-16T00:12:04;3.75;;;1.40;;
77726;SDS011;68312;53.502;10.030;2023-07-16T00:14:30;5.35;;;1.17;;
77726;SDS011;68312;53.502;10.030;2023-07-16T00:16:55;2.22;;;1.08;;
77726;SDS011;68312;53.502;10.030;2023-07-16T00:19:20;3.67;;;1.20;;
77726;SDS011;68312;53.502;10.030;2023-07-16T00:21:46;4.00;;;1.10;;
77726;SDS011;68312;53.502;10.030;2023-07-16T00:24:11;2.08;;;1.30;;
77726;SDS011;68312;53.502;10.030;2023-07-16T00:26:37;3.88;;;1.42;;
77726;SDS011;68312;53.502;10.030;2023-07-16T00:32:36;2.08;;;1.13;;
77726;SDS011;68312;53.502;10.030;2023-07-16T00:35:02;2.60;;;1.23;;
77726;SDS011;68312;53.502;10.030;2023-07-16T00:37:27;3.33;;;1.55;;
77726;SDS011;68312;53.502;10.030;2023-07-16T00:39:53;5.15;;;2.40;;
77726;SDS011;68312;53.502;10.030;2023-07-16T00:42:18;3.67;;;1.55;;
77726;SDS011;68312;53.502;10.030;2023-07-16T00:44:44;2.35;;;1.40;;
77726;SDS011;68312;53.502;10.030;2023-07-16T00:47:09;2.33;;;1.30;;
77726;SDS011;68312;53.502;10.030;2023-07-16T00:49:36;2.47;;;1.40;;
77726;SDS011;68312;53.502;10.030;2023-07-16T00:52:03;2.35;;;1.35;;
77726;SDS011;68312;53.502;10.030;2023-07-16T00:54:32;3.85;;;1.30;;
77726;SDS011;68312;53.502;10.030;2023-07-16T00:56:58;4.18;;;1.33;;
77726;SDS011;68312;53.502;10.030;2023-07-16T00:59:23;3.72;;;1.30;;
77726;SDS011;68312;53.502;10.030;2023-07-16T01:01:49;3.30;;;1.30;;
77726;SDS011;68312;53.502;10.030;2023-07-16T01:04:14;2.55;;;1.20;;
77726;SDS011;68312;53.502;10.030;2023-07-16T01:06:41;3.28;;;1.70;;
77726;SDS011;68312;53.502;10.030;2023-07-16T01:09:16;4.07;;;1.40;;
77726;SDS011;68312;53.502;10.030;2023-07-16T01:11:43;2.75;;;1.48;;
77726;SDS011;68312;53.502;10.030;2023-07-16T01:14:12;2.90;;;1.40;;
77726;SDS011;68312;53.502;10.030;2023-07-16T01:16:41;4.10;;;1.60;;
77726;SDS011;68312;53.502;10.030;2023-07-16T01:19:07;3.90;;;1.77;;
77726;SDS011;68312;53.502;10.030;2023-07-16T01:31:02;4.78;;;1.40;;
77726;SDS011;68312;53.502;10.030;2023-07-16T01:36:33;6.32;;;1.80;;
77726;SDS011;68312;53.502;10.030;2023-07-16T01:39:01;4.13;;;1.70;;
77726;SDS011;68312;53.502;10.030;2023-07-16T01:41:28;2.20;;;1.10;;
77726;SDS011;68312;53.502;10.030;2023-07-16T01:49:31;5.68;;;1.70;;
77726;SDS011;68312;53.502;10.030;2023-07-16T01:51:57;5.78;;;2.33;;
77726;SDS011;68312;53.502;10.030;2023-07-16T01:54:25;3.33;;;2.47;;
77726;SDS011;68312;53.502;10.030;2023-07-16T01:56:51;3.58;;;1.27;;
77726;SDS011;68312;53.502;10.030;2023-07-16T01:59:16;7.32;;;4.68;;
77726;SDS011;68312;53.502;10.030;2023-07-16T02:01:41;6.82;;;2.90;;
77726;SDS011;68312;53.502;10.030;2023-07-16T02:04:07;5.10;;;3.40;;
77726;SDS011;68312;53.502;10.030;2023-07-16T02:10:13;6.65;;;2.03;;
77726;SDS011;68312;53.502;10.030;2023-07-16T02:12:38;5.63;;;1.40;;
77726;SDS011;68312;53.502;10.030;2023-07-16T02:15:04;3.58;;;1.30;;
77726;SDS011;68312;53.502;10.030;2023-07-16T02:17:30;3.85;;;1.08;;
77726;SDS011;68312;53.502;10.030;2023-07-16T02:19:55;3.42;;;1.20;;
77726;SDS011;68312;53.502;10.030;2023-07-16T02:22:21;2.58;;;1.30;;
77726;SDS011;68312;53.502;10.030;2023-07-16T02:24:46;4.60;;;1.20;;
77726;SDS011;68312;53.502;10.030;2023-07-16T02:27:12;2.55;;;1.38;;
77726;SDS011;68312;53.502;10.030;2023-07-16T02:29:37;3.95;;;1.50;;
77726;SDS011;68312;53.502;10.030;2023-07-16T02:32:02;3.85;;;1.25;;
77726;SDS011;68312;53.502;10.030;2023-07-16T02:34:28;4.20;;;1.38;;
77726;SDS011;68312;53.502;10.030;2023-07-16T02:36:54;3.75;;;1.13;;
77726;SDS011;68312;53.502;10.030;2023-07-16T02:39:19;4.70;;;1.30;;
77726;SDS011;68312;53.502;10.030;2023-07-16T02:41:44;2.97;;;1.30;;
77726;SDS011;68312;53.502;10.030;2023-07-16T02:44:10;5.10;;;1.40;;
77726;SDS011;68312;53.502;10.030;2023-07-16T02:46:35;4.30;;;1.60;;
77726;SDS011;68312;53.502;10.030;2023-07-16T02:49:02;4.15;;;1.13;;
77726;SDS011;68312;53.502;10.030;2023-07-16T02:51:28;2.97;;;1.35;;
77726;SDS011;68312;53.502;10.030;2023-07-16T02:53:54;4.28;;;1.40;;
77726;SDS011;68312;53.502;10.030;2023-07-16T02:56:19;3.17;;;1.20;;
77726;SDS011;68312;53.502;10.030;2023-07-16T02:58:45;3.20;;;1.58;;
77726;SDS011;68312;53.502;10.030;2023-07-16T03:01:11;3.88;;;1.50;;
77726;SDS011;68312;53.502;10.030;2023-07-16T03:03:37;6.47;;;2.72;;
77726;SDS011;68312;53.502;10.030;2023-07-16T03:06:03;2.92;;;1.70;;
77726;SDS011;68312;53.502;10.030;2023-07-16T03:08:28;3.00;;;1.40;;
77726;SDS011;68312;53.502;10.030;2023-07-16T03:10:55;4.57;;;1.23;;
77726;SDS011;68312;53.502;10.030;2023-07-16T03:13:21;3.90;;;1.77;;
77726;SDS011;68312;53.502;10.030;2023-07-16T03:15:47;4.32;;;1.30;;
77726;SDS011;68312;53.502;10.030;2023-07-16T03:18:12;2.55;;;1.25;;
77726;SDS011;68312;53.502;10.030;2023-07-16T03:20:37;2.45;;;1.20;;
77726;SDS011;68312;53.502;10.030;2023-07-16T03:23:03;2.58;;;1.00;;
77726;SDS011;68312;53.502;10.030;2023-07-16T03:28:19;3.53;;;1.42;;
77726;SDS011;68312;53.502;10.030;2023-07-16T03:30:48;4.65;;;1.45;;
77726;SDS011;68312;53.502;10.030;2023-07-16T03:33:14;3.95;;;1.33;;
77726;SDS011;68312;53.502;10.030;2023-07-16T03:35:43;3.65;;;1.20;;
77726;SDS011;68312;53.502;10.030;2023-07-16T03:38:14;2.70;;;1.40;;
77726;SDS011;68312;53.502;10.030;2023-07-16T03:40:41;3.80;;;1.40;;
77726;SDS011;68312;53.502;10.030;2023-07-16T03:43:11;3.65;;;1.30;;
77726;SDS011;68312;53.502;10.030;2023-07-16T03:45:36;3.20;;;1.23;;
77726;SDS011;68312;53.502;10.030;2023-07-16T03:48:01;2.30;;;1.33;;
77726;SDS011;68312;53.502;10.030;2023-07-16T03:50:27;2.10;;;1.20;;
77726;SDS011;68312;53.502;10.030;2023-07-16T03:52:53;3.22;;;1.27;;
77726;SDS011;68312;53.502;10.030;2023-07-16T03:55:19;2.95;;;1.40;;
77726;SDS011;68312;53.502;10.030;2023-07-16T03:57:44;3.58;;;1.25;;
77726;SDS011;68312;53.502;10.030;2023-07-16T04:00:10;3.40;;;1.83;;
77726;SDS011;68312;53.502;10.030;2023-07-16T04:02:36;4.30;;;1.83;;
77726;SDS011;68312;53.502;10.030;2023-07-16T04:05:02;6.07;;;1.80;;
77726;SDS011;68312;53.502;10.030;2023-07-16T04:07:28;2.42;;;1.50;;
77726;SDS011;68312;53.502;10.030;2023-07-16T04:09:53;3.05;;;1.48;;
77726;SDS011;68312;53.502;10.030;2023-07-16T04:12:19;3.45;;;1.73;;
77726;SDS011;68312;53.502;10.030;2023-07-16T04:14:44;2.97;;;1.40;;
77726;SDS011;68312;53.502;10.030;2023-07-16T04:17:10;4.60;;;1.40;;
77726;SDS011;68312;53.502;10.030;2023-07-16T04:19:35;4.60;;;1.50;;
77726;SDS011;68312;53.502;10.030;2023-07-16T04:22:01;2.88;;;1.70;;
77726;SDS011;68312;53.502;10.030;2023-07-16T04:24:26;3.67;;;1.55;;
77726;SDS011;68312;53.502;10.030;2023-07-16T04:26:52;4.38;;;1.33;;
77726;SDS011;68312;53.502;10.030;2023-07-16T04:29:19;2.85;;;1.38;;
77726;SDS011;68312;53.502;10.030;2023-07-16T04:31:44;5.10;;;1.90;;
77726;SDS011;68312;53.502;10.030;2023-07-16T04:34:09;2.50;;;1.20;;
77726;SDS011;68312;53.502;10.030;2023-07-16T04:36:35;2.40;;;1.33;;
77726;SDS011;68312;53.502;10.030;2023-07-16T04:39:00;3.25;;;1.45;;
77726;SDS011;68312;53.502;10.030;2023-07-16T04:41:26;4.68;;;1.55;;
77726;SDS011;68312;53.502;10.030;2023-07-16T04:43:52;4.45;;;1.50;;
77726;SDS011;68312;53.502;10.030;2023-07-16T04:46:17;3.72;;;1.70;;
77726;SDS011;68312;53.502;10.030;2023-07-16T04:48:43;6.28;;;1.50;;
77726;SDS011;68312;53.502;10.030;2023-07-16T04:51:08;5.28;;;1.60;;
77726;SDS011;68312;53.502;10.030;2023-07-16T04:56:34;6.88;;;1.83;;
77726;SDS011;68312;53.502;10.030;2023-07-16T04:59:02;4.38;;;1.27;;
77726;SDS011;68312;53.502;10.030;2023-07-16T05:01:27;3.85;;;1.60;;
77726;SDS011;68312;53.502;10.030;2023-07-16T05:03:53;4.90;;;1.70;;
77726;SDS011;68312;53.502;10.030;2023-07-16T05:06:18;4.10;;;1.20;;
77726;SDS011;68312;53.502;10.030;2023-07-16T05:08:43;3.50;;;1.58;;
77726;SDS011;68312;53.502;10.030;2023-07-16T05:11:09;4.60;;;1.63;;
77726;SDS011;68312;53.502;10.030;2023-07-16T05:13:34;4.05;;;1.40;;
77726;SDS011;68312;53.502;10.030;2023-07-16T05:16:00;4.63;;;1.50;;
77726;SDS011;68312;53.502;10.030;2023-07-16T05:18:25;2.78;;;1.20;;
77726;SDS011;68312;53.502;10.030;2023-07-16T05:20:50;4.20;;;1.42;;
77726;SDS011;68312;53.502;10.030;2023-07-16T05:26:31;3.17;;;1.23;;
77726;SDS011;68312;53.502;10.030;2023-07-16T05:28:58;3.58;;;1.42;;
77726;SDS011;68312;53.502;10.030;2023-07-16T05:31:24;3.83;;;1.52;;
77726;SDS011;68312;53.502;10.030;2023-07-16T05:33:49;3.90;;;1.60;;
77726;SDS011;68312;53.502;10.030;2023-07-16T05:36:15;4.68;;;1.58;;
77726;SDS011;68312;53.502;10.030;2023-07-16T05:38:40;6.47;;;1.88;;
77726;SDS011;68312;53.502;10.030;2023-07-16T05:41:05;3.25;;;1.38;;
77726;SDS011;68312;53.502;10.030;2023-07-16T05:43:31;4.75;;;1.50;;
77726;SDS011;68312;53.502;10.030;2023-07-16T05:45:57;3.53;;;1.35;;
77726;SDS011;68312;53.502;10.030;2023-07-16T05:48:24;3.30;;;1.50;;
77726;SDS011;68312;53.502;10.030;2023-07-16T05:50:50;2.75;;;1.40;;
77726;SDS011;68312;53.502;10.030;2023-07-16T05:53:15;5.47;;;1.33;;
77726;SDS011;68312;53.502;10.030;2023-07-16T05:55:41;3.45;;;1.10;;
77726;SDS011;68312;53.502;10.030;2023-07-16T05:58:07;4.55;;;1.40;;
77726;SDS011;68312;53.502;10.030;2023-07-16T06:00:33;3.42;;;1.30;;
77726;SDS011;68312;53.502;10.030;2023-07-16T06:02:59;3.22;;;1.30;;
77726;SDS011;68312;53.502;10.030;2023-07-16T06:05:26;2.35;;;1.35;;
77726;SDS011;68312;53.502;10.030;2023-07-16T06:07:52;3.42;;;1.40;;
77726;SDS011;68312;53.502;10.030;2023-07-16T06:10:17;4.05;;;1.40;;
77726;SDS011;68312;53.502;10.030;2023-07-16T06:12:42;6.05;;;1.55;;
77726;SDS011;68312;53.502;10.030;2023-07-16T06:15:08;6.75;;;1.65;;
77726;SDS011;68312;53.502;10.030;2023-07-16T06:17:34;5.72;;;1.25;;
77726;SDS011;68312;53.502;10.030;2023-07-16T06:19:59;5.38;;;1.90;;
77726;SDS011;68312;53.502;10.030;2023-07-16T06:22:26;6.55;;;1.33;;
77726;SDS011;68312;53.502;10.030;2023-07-16T06:24:51;6.38;;;1.58;;
77726;SDS011;68312;53.502;10.030;2023-07-16T06:27:16;4.32;;;1.30;;
77726;SDS011;68312;53.502;10.030;2023-07-16T06:29:42;2.42;;;1.20;;
77726;SDS011;68312;53.502;10.030;2023-07-16T06:32:07;3.58;;;1.10;;
77726;SDS011;68312;53.502;10.030;2023-07-16T06:34:33;3.13;;;1.25;;
77726;SDS011;68312;53.502;10.030;2023-07-16T06:36:58;3.95;;;1.50;;
77726;SDS011;68312;53.502;10.030;2023-07-16T06:39:25;2.90;;;1.30;;
77726;SDS011;68312;53.502;10.030;2023-07-16T06:41:50;3.63;;;1.50;;
77726;SDS011;68312;53.502;10.030;2023-07-16T06:44:15;7.15;;;1.38;;
77726;SDS011;68312;53.502;10.030;2023-07-16T06:46:41;8.18;;;1.52;;
77726;SDS011;68312;53.502;10.030;2023-07-16T06:49:07;4.18;;;1.30;;
77726;SDS011;68312;53.502;10.030;2023-07-16T06:51:33;5.15;;;2.42;;
77726;SDS011;68312;53.502;10.030;2023-07-16T06:53:59;6.70;;;1.80;;
77726;SDS011;68312;53.502;10.030;2023-07-16T06:56:24;6.05;;;1.88;;
77726;SDS011;68312;53.502;10.030;2023-07-16T06:58:50;4.47;;;1.50;;
77726;SDS011;68312;53.502;10.030;2023-07-16T07:01:15;7.47;;;1.80;;
77726;SDS011;68312;53.502;10.030;2023-07-16T07:03:40;3.72;;;1.60;;
77726;SDS011;68312;53.502;10.030;2023-07-16T07:06:06;6.45;;;1.67;;
77726;SDS011;68312;53.502;10.030;2023-07-16T07:08:31;4.70;;;1.77;;
77726;SDS011;68312;53.502;10.030;2023-07-16T07:10:57;4.88;;;1.90;;
77726;SDS011;68312;53.502;10.030;2023-07-16T07:13:24;4.20;;;2.08;;
77726;SDS011;68312;53.502;10.030;2023-07-16T07:15:49;4.50;;;1.50;;
77726;SDS011;68312;53.502;10.030;2023-07-16T07:18:15;5.47;;;1.60;;
77726;SDS011;68312;53.502;10.030;2023-07-16T07:20:41;4.18;;;1.70;;
77726;SDS011;68312;53.502;10.030;2023-07-16T07:23:07;5.57;;;1.70;;
77726;SDS011;68312;53.502;10.030;2023-07-16T07:25:33;3.33;;;1.60;;
77726;SDS011;68312;53.502;10.030;2023-07-16T07:27:59;5.10;;;1.90;;
77726;SDS011;68312;53.502;10.030;2023-07-16T07:30:25;3.28;;;1.55;;
77726;SDS011;68312;53.502;10.030;2023-07-16T07:32:50;5.60;;;1.83;;
77726;SDS011;68312;53.502;10.030;2023-07-16T07:35:16;6.50;;;1.60;;
77726;SDS011;68312;53.502;10.030;2023-07-16T07:37:41;4.80;;;1.33;;
77726;SDS011;68312;53.502;10.030;2023-07-16T07:40:07;6.22;;;1.80;;
77726;SDS011;68312;53.502;10.030;2023-07-16T07:42:33;5.75;;;1.45;;
77726;SDS011;68312;53.502;10.030;2023-07-16T07:44:58;3.33;;;1.90;;
77726;SDS011;68312;53.502;10.030;2023-07-16T07:47:24;8.63;;;1.95;;
77726;SDS011;68312;53.502;10.030;2023-07-16T07:49:50;4.65;;;1.52;;
77726;SDS011;68312;53.502;10.030;2023-07-16T07:52:17;5.68;;;1.48;;
77726;SDS011;68312;53.502;10.030;2023-07-16T07:54:44;6.80;;;2.10;;
77726;SDS011;68312;53.502;10.030;2023-07-16T07:57:10;3.90;;;1.48;;
77726;SDS011;68312;53.502;10.030;2023-07-16T07:59:36;6.70;;;1.60;;
77726;SDS011;68312;53.502;10.030;2023-07-16T08:02:01;6.47;;;1.80;;
77726;SDS011;68312;53.502;10.030;2023-07-16T08:04:27;3.13;;;1.55;;
77726;SDS011;68312;53.502;10.030;2023-07-16T08:06:52;8.32;;;2.35;;
77726;SDS011;68312;53.502;10.030;2023-07-16T08:09:19;6.28;;;1.83;;
77726;SDS011;68312;53.502;10.030;2023-07-16T08:11:45;5.45;;;1.50;;
77726;SDS011;68312;53.502;10.030;2023-07-16T08:14:11;3.95;;;1.40;;
77726;SDS011;68312;53.502;10.030;2023-07-16T08:16:36;4.15;;;1.50;;
77726;SDS011;68312;53.502;10.030;2023-07-16T08:19:02;6.00;;;1.73;;
77726;SDS011;68312;53.502;10.030;2023-07-16T08:21:27;5.90;;;1.67;;
77726;SDS011;68312;53.502;10.030;2023-07-16T08:23:53;5.85;;;1.70;;
77726;SDS011;68312;53.502;10.030;2023-07-16T08:26:18;5.40;;;1.70;;
77726;SDS011;68312;53.502;10.030;2023-07-16T08:28:44;4.15;;;1.55;;
77726;SDS011;68312;53.502;10.030;2023-07-16T08:31:10;8.07;;;1.75;;
77726;SDS011;68312;53.502;10.030;2023-07-16T08:33:37;6.28;;;2.60;;
77726;SDS011;68312;53.502;10.030;2023-07-16T08:36:03;6.22;;;1.33;;
77726;SDS011;68312;53.502;10.030;2023-07-16T08:38:29;4.32;;;1.70;;
77726;SDS011;68312;53.502;10.030;2023-07-16T08:40:54;3.30;;;1.50;;
77726;SDS011;68312;53.502;10.030;2023-07-16T08:43:20;4.72;;;1.90;;
77726;SDS011;68312;53.502;10.030;2023-07-16T08:45:46;5.55;;;1.90;;
77726;SDS011;68312;53.502;10.030;2023-07-16T08:48:14;4.32;;;2.13;;
77726;SDS011;68312;53.502;10.030;2023-07-16T08:50:46;4.82;;;2.03;;
77726;SDS011;68312;53.502;10.030;2023-07-16T08:53:14;3.03;;;1.65;;
77726;SDS011;68312;53.502;10.030;2023-07-16T08:55:41;4.38;;;1.92;;
77726;SDS011;68312;53.502;10.030;2023-07-16T08:58:12;4.38;;;2.47;;
77726;SDS011;68312;53.502;10.030;2023-07-16T09:00:42;5.57;;;2.35;;
77726;SDS011;68312;53.502;10.030;2023-07-16T09:03:10;4.05;;;2.33;;
77726;SDS011;68312;53.502;10.030;2023-07-16T09:05:38;4.55;;;2.50;;
77726;SDS011;68312;53.502;10.030;2023-07-16T09:08:04;6.70;;;2.50;;
77726;SDS011;68312;53.502;10.030;2023-07-16T09:10:30;4.82;;;2.80;;
77726;SDS011;68312;53.502;10.030;2023-07-16T09:12:57;4.40;;;2.63;;
77726;SDS011;68312;53.502;10.030;2023-07-16T09:15:24;3.38;;;1.90;;
77726;SDS011;68312;53.502;10.030;2023-07-16T09:17:49;3.50;;;2.33;;
77726;SDS011;68312;53.502;10.030;2023-07-16T09:20:18;5.25;;;2.67;;
77726;SDS011;68312;53.502;10.030;2023-07-16T09:22:47;7.00;;;2.80;;
77726;SDS011;68312;53.502;10.030;2023-07-16T09:25:13;9.45;;;2.40;;
77726;SDS011;68312;53.502;10.030;2023-07-16T09:27:38;7.63;;;2.53;;
77726;SDS011;68312;53.502;10.030;2023-07-16T09:30:04;6.05;;;2.80;;
77726;SDS011;68312;53.502;10.030;2023-07-16T09:32:35;6.82;;;2.55;;
77726;SDS011;68312;53.502;10.030;2023-07-16T09:35:13;6.25;;;2.65;;
77726;SDS011;68312;53.502;10.030;2023-07-16T09:37:42;4.93;;;2.25;;
77726;SDS011;68312;53.502;10.030;2023-07-16T09:40:09;5.85;;;2.42;;
77726;SDS011;68312;53.502;10.030;2023-07-16T09:42:37;5.68;;;2.33;;
77726;SDS011;68312;53.502;10.030;2023-07-16T09:45:05;5.65;;;2.05;;
77726;SDS011;68312;53.502;10.030;2023-07-16T09:47:33;4.72;;;2.38;;
77726;SDS011;68312;53.502;10.030;2023-07-16T09:50:00;4.55;;;2.45;;
77726;SDS011;68312;53.502;10.030;2023-07-16T09:52:27;5.00;;;2.05;;
77726;SDS011;68312;53.502;10.030;2023-07-16T09:54:55;6.20;;;2.30;;
77726;SDS011;68312;53.502;10.030;2023-07-16T09:57:25;5.97;;;2.28;;
77726;SDS011;68312;53.502;10.030;2023-07-16T09:59:53;9.05;;;2.35;;
77726;SDS011;68312;53.502;10.030;2023-07-16T10:02:23;4.75;;;2.25;;
77726;SDS011;68312;53.502;10.030;2023-07-16T10:04:50;4.93;;;2.30;;
77726;SDS011;68312;53.502;10.030;2023-07-16T10:07:22;6.57;;;2.20;;
77726;SDS011;68312;53.502;10.030;2023-07-16T10:09:54;5.55;;;2.28;;
77726;SDS011;68312;53.502;10.030;2023-07-16T10:12:26;4.28;;;2.03;;
77726;SDS011;68312;53.502;10.030;2023-07-16T10:14:52;6.88;;;2.10;;
77726;SDS011;68312;53.502;10.030;2023-07-16T10:17:22;5.38;;;2.50;;
77726;SDS011;68312;53.502;10.030;2023-07-16T10:27:45;6.07;;;2.40;;
77726;SDS011;68312;53.502;10.030;2023-07-16T10:30:12;4.65;;;2.40;;
77726;SDS011;68312;53.502;10.030;2023-07-16T10:32:38;5.28;;;2.45;;
77726;SDS011;68312;53.502;10.030;2023-07-16T10:35:05;6.05;;;2.15;;
77726;SDS011;68312;53.502;10.030;2023-07-16T10:37:36;8.13;;;2.13;;
77726;SDS011;68312;53.502;10.030;2023-07-16T10:40:03;6.40;;;2.67;;
77726;SDS011;68312;53.502;10.030;2023-07-16T10:42:30;16.10;;;2.70;;
77726;SDS011;68312;53.502;10.030;2023-07-16T10:44:58;5.25;;;2.42;;
77726;SDS011;68312;53.502;10.030;2023-07-16T10:49:59;6.75;;;2.45;;
77726;SDS011;68312;53.502;10.030;2023-07-16T10:52:28;6.60;;;2.40;;
77726;SDS011;68312;53.502;10.030;2023-07-16T10:54:53;5.95;;;2.25;;
77726;SDS011;68312;53.502;10.030;2023-07-16T10:57:24;7.82;;;2.70;;
77726;SDS011;68312;53.502;10.030;2023-07-16T10:59:52;7.85;;;2.35;;
77726;SDS011;68312;53.502;10.030;2023-07-16T11:02:20;6.32;;;2.20;;
77726;SDS011;68312;53.502;10.030;2023-07-16T11:04:48;10.45;;;2.53;;
77726;SDS011;68312;53.502;10.030;2023-07-16T11:07:15;6.25;;;2.05;;
77726;SDS011;68312;53.502;10.030;2023-07-16T11:09:41;5.47;;;2.30;;
77726;SDS011;68312;53.502;10.030;2023-07-16T11:12:15;6.95;;;2.30;;
77726;SDS011;68312;53.502;10.030;2023-07-16T11:14:44;4.28;;;2.20;;
77726;SDS011;68312;53.502;10.030;2023-07-16T11:17:16;6.03;;;2.45;;
77726;SDS011;68312;53.502;10.030;2023-07-16T11:19:45;5.82;;;2.10;;
77726;SDS011;68312;53.502;10.030;2023-07-16T11:22:13;7.40;;;2.22;;
77726;SDS011;68312;53.502;10.030;2023-07-16T11:24:44;4.63;;;2.13;;
77726;SDS011;68312;53.502;10.030;2023-07-16T11:27:16;4.83;;;2.00;;
77726;SDS011;68312;53.502;10.030;2023-07-16T11:29:55;5.95;;;2.20;;
77726;SDS011;68312;53.502;10.030;2023-07-16T11:32:26;10.52;;;2.10;;
77726;SDS011;68312;53.502;10.030;2023-07-16T11:34:55;5.45;;;2.15;;
77726;SDS011;68312;53.502;10.030;2023-07-16T11:37:22;6.50;;;2.83;;
77726;SDS011;68312;53.502;10.030;2023-07-16T11:39:50;4.47;;;2.30;;
77726;SDS011;68312;53.502;10.030;2023-07-16T11:42:22;4.82;;;2.50;;
77726;SDS011;68312;53.502;10.030;2023-07-16T11:45:00;4.85;;;2.50;;
77726;SDS011;68312;53.502;10.030;2023-07-16T11:47:27;5.85;;;2.53;;
77726;SDS011;68312;53.502;10.030;2023-07-16T11:49:53;5.63;;;2.55;;
77726;SDS011;68312;53.502;10.030;2023-07-16T11:52:20;4.10;;;2.30;;
77726;SDS011;68312;53.502;10.030;2023-07-16T11:54:48;5.22;;;2.30;;
77726;SDS011;68312;53.502;10.030;2023-07-16T11:57:14;7.88;;;2.53;;
77726;SDS011;68312;53.502;10.030;2023-07-16T11:59:41;4.90;;;2.33;;
77726;SDS011;68312;53.502;10.030;2023-07-16T12:02:07;9.38;;;2.20;;
77726;SDS011;68312;53.502;10.030;2023-07-16T12:04:33;5.60;;;2.20;;
77726;SDS011;68312;53.502;10.030;2023-07-16T12:06:59;5.22;;;2.30;;
77726;SDS011;68312;53.502;10.030;2023-07-16T12:24:51;6.20;;;2.20;;
77726;SDS011;68312;53.502;10.030;2023-07-16T12:27:17;8.90;;;2.25;;
77726;SDS011;68312;53.502;10.030;2023-07-16T12:29:43;4.00;;;2.17;;
77726;SDS011;68312;53.502;10.030;2023-07-16T12:32:09;4.63;;;2.10;;
77726;SDS011;68312;53.502;10.030;2023-07-16T12:34:35;4.40;;;1.75;;
77726;SDS011;68312;53.502;10.030;2023-07-16T12:37:00;4.82;;;1.70;;
77726;SDS011;68312;53.502;10.030;2023-07-16T12:39:27;4.68;;;2.08;;
77726;SDS011;68312;53.502;10.030;2023-07-16T12:41:53;3.95;;;2.10;;
77726;SDS011;68312;53.502;10.030;2023-07-16T12:44:18;4.18;;;2.45;;
77726;SDS011;68312;53.502;10.030;2023-07-16T12:46:44;6.10;;;2.55;;
77726;SDS011;68312;53.502;10.030;2023-07-16T12:49:09;4.97;;;1.88;;
77726;SDS011;68312;53.502;10.030;2023-07-16T12:51:34;3.97;;;1.88;;
77726;SDS011;68312;53.502;10.030;2023-07-16T12:54:00;5.40;;;1.77;;
77726;SDS011;68312;53.502;10.030;2023-07-16T12:56:25;5.50;;;2.13;;
77726;SDS011;68312;53.502;10.030;2023-07-16T12:58:51;4.82;;;1.85;;
77726;SDS011;68312;53.502;10.030;2023-07-16T13:01:17;5.43;;;1.70;;
77726;SDS011;68312;53.502;10.030;2023-07-16T13:03:42;3.33;;;1.42;;
77726;SDS011;68312;53.502;10.030;2023-07-16T13:06:08;3.53;;;1.70;;
77726;SDS011;68312;53.502;10.030;2023-07-16T13:08:33;3.90;;;1.60;;
77726;SDS011;68312;53.502;10.030;2023-07-16T13:11:00;7.13;;;1.90;;
77726;SDS011;68312;53.502;10.030;2023-07-16T13:13:25;6.22;;;2.08;;
77726;SDS011;68312;53.502;10.030;2023-07-16T13:15:51;4.28;;;1.98;;
77726;SDS011;68312;53.502;10.030;2023-07-16T13:18:16;3.90;;;1.70;;
77726;SDS011;68312;53.502;10.030;2023-07-16T13:20:44;3.78;;;1.80;;
77726;SDS011;68312;53.502;10.030;2023-07-16T13:23:09;3.65;;;1.75;;
77726;SDS011;68312;53.502;10.030;2023-07-16T13:25:35;6.57;;;1.85;;
77726;SDS011;68312;53.502;10.030;2023-07-16T13:28:03;7.82;;;2.00;;
77726;SDS011;68312;53.502;10.030;2023-07-16T13:30:32;3.85;;;1.80;;
77726;SDS011;68312;53.502;10.030;2023-07-16T13:32:57;3.85;;;1.73;;
77726;SDS011;68312;53.502;10.030;2023-07-16T13:35:23;5.38;;;2.05;;
77726;SDS011;68312;53.502;10.030;2023-07-16T13:37:49;5.60;;;1.73;;
77726;SDS011;68312;53.502;10.030;2023-07-16T13:40:14;5.47;;;2.15;;
77726;SDS011;68312;53.502;10.030;2023-07-16T13:42:40;5.82;;;2.38;;
77726;SDS011;68312;53.502;10.030;2023-07-16T13:45:05;4.53;;;2.25;;
77726;SDS011;68312;53.502;10.030;2023-07-16T13:47:31;6.03;;;1.83;;
77726;SDS011;68312;53.502;10.030;2023-07-16T13:49:57;4.93;;;2.10;;
77726;SDS011;68312;53.502;10.030;2023-07-16T13:52:23;3.30;;;1.88;;
77726;SDS011;68312;53.502;10.030;2023-07-16T13:54:48;5.95;;;1.80;;
77726;SDS011;68312;53.502;10.030;2023-07-16T13:57:13;3.95;;;1.70;;
77726;SDS011;68312;53.502;10.030;2023-07-16T13:59:39;4.55;;;1.60;;
77726;SDS011;68312;53.502;10.030;2023-07-16T14:02:04;6.93;;;2.05;;
77726;SDS011;68312;53.502;10.030;2023-07-16T14:04:30;4.90;;;1.67;;
77726;SDS011;68312;53.502;10.030;2023-07-16T14:06:56;4.15;;;2.10;;
77726;SDS011;68312;53.502;10.030;2023-07-16T14:09:21;3.25;;;1.65;;
77726;SDS011;68312;53.502;10.030;2023-07-16T14:11:47;5.85;;;1.77;;
77726;SDS011;68312;53.502;10.030;2023-07-16T14:14:13;5.03;;;1.85;;
77726;SDS011;68312;53.502;10.030;2023-07-16T14:16:40;9.65;;;1.77;;
77726;SDS011;68312;53.502;10.030;2023-07-16T14:19:05;5.13;;;2.38;;
77726;SDS011;68312;53.502;10.030;2023-07-16T14:21:31;4.18;;;1.70;;
77726;SDS011;68312;53.502;10.030;2023-07-16T14:23:56;6.53;;;1.98;;
77726;SDS011;68312;53.502;10.030;2023-07-16T14:26:22;4.28;;;1.98;;
77726;SDS011;68312;53.502;10.030;2023-07-16T14:28:47;4.43;;;1.65;;
77726;SDS011;68312;53.502;10.030;2023-07-16T14:31:13;3.63;;;1.90;;
77726;SDS011;68312;53.502;10.030;2023-07-16T14:33:39;4.38;;;1.70;;
77726;SDS011;68312;53.502;10.030;2023-07-16T14:36:04;4.60;;;1.60;;
77726;SDS011;68312;53.502;10.030;2023-07-16T14:38:30;3.85;;;1.80;;
77726;SDS011;68312;53.502;10.030;2023-07-16T14:40:55;4.32;;;1.55;;
77726;SDS011;68312;53.502;10.030;2023-07-16T14:43:21;3.65;;;1.70;;
77726;SDS011;68312;53.502;10.030;2023-07-16T14:45:46;7.13;;;2.15;;
77726;SDS011;68312;53.502;10.030;2023-07-16T14:48:12;3.83;;;1.80;;
77726;SDS011;68312;53.502;10.030;2023-07-16T14:50:37;4.40;;;1.95;;
77726;SDS011;68312;53.502;10.030;2023-07-16T14:53:02;6.43;;;1.90;;
77726;SDS011;68312;53.502;10.030;2023-07-16T14:55:30;4.18;;;1.70;;
77726;SDS011;68312;53.502;10.030;2023-07-16T14:57:55;3.53;;;1.67;;
77726;SDS011;68312;53.502;10.030;2023-07-16T15:00:21;4.03;;;1.88;;
77726;SDS011;68312;53.502;10.030;2023-07-16T15:02:47;4.88;;;1.73;;
77726;SDS011;68312;53.502;10.030;2023-07-16T15:05:12;4.88;;;1.95;;
77726;SDS011;68312;53.502;10.030;2023-07-16T15:07:37;5.13;;;1.92;;
77726;SDS011;68312;53.502;10.030;2023-07-16T15:10:03;5.75;;;1.73;;
77726;SDS011;68312;53.502;10.030;2023-07-16T15:12:31;3.45;;;1.95;;
77726;SDS011;68312;53.502;10.030;2023-07-16T15:14:58;4.35;;;1.60;;
77726;SDS011;68312;53.502;10.030;2023-07-16T15:17:23;3.80;;;1.52;;
77726;SDS011;68312;53.502;10.030;2023-07-16T15:19:49;5.03;;;1.85;;
77726;SDS011;68312;53.502;10.030;2023-07-16T15:22:16;6.53;;;2.03;;
77726;SDS011;68312;53.502;10.030;2023-07-16T15:24:43;4.97;;;1.73;;
77726;SDS011;68312;53.502;10.030;2023-07-16T15:27:10;5.70;;;2.15;;
77726;SDS011;68312;53.502;10.030;2023-07-16T15:29:35;4.72;;;1.88;;